sensor_id;sensor_type;location;lat;lon;timestamp;temperature;humidity
19037;DHT22;9651;49.138;8.900;2023-04-03T00:03:25;5.40;99.90
19037;DHT22;9651;49.138;8.900;2023-04-03T00:07:28;5.40;99.90
19037;DHT22;9651;49.138;8.900;2023-04-03T00:11:30;5.20;99.90
19037;DHT22;9651;49.138;8.900;2023-04-03T00:15:32;5.30;99.90
19037;DHT22;9651;49.138;8.900;2023-04-03T00:19:34;5.20;99.90
19037;DHT22;9651;49.138;8.900;2023-04-03T00:23:38;5.30;99.90
19037;DHT22;9651;49.138;8.900;2023-04-03T00:27:40;5.40;99.90
19037;DHT22;9651;49.138;8.900;2023-04-03T00:31:42;5.40;99.90
19037;DHT22;9651;49.138;8.900;2023-04-03T00:35:44;5.30;99.90
19037;DHT22;9651;49.138;8.900;2023-04-03T00:39:47;5.20;99.90
19037;DHT22;9651;49.138;8.900;2023-04-03T00:43:49;5.30;99.90
19037;DHT22;9651;49.138;8.900;2023-04-03T00:47:51;5.30;99.90
19037;DHT22;9651;49.138;8.900;2023-04-03T00:51:54;5.20;99.90
19037;DHT22;9651;49.138;8.900;2023-04-03T00:55:58;5.00;99.90
19037;DHT22;9651;49.138;8.900;2023-04-03T01:00:05;5.00;99.90
19037;DHT22;9651;49.138;8.900;2023-04-03T01:04:27;5.00;99.90
19037;DHT22;9651;49.138;8.900;2023-04-03T01:08:29;5.00;99.90
19037;DHT22;9651;49.138;8.900;2023-04-03T01:12:35;5.00;99.90
19037;DHT22;9651;49.138;8.900;2023-04-03T01:16:37;5.00;99.90
19037;DHT22;9651;49.138;8.900;2023-04-03T01:25:28;4.90;99.90
19037;DHT22;9651;49.138;8.900;2023-04-03T01:29:33;4.90;99.90
19037;DHT22;9651;49.138;8.900;2023-04-03T01:33:37;4.90;99.90
19037;DHT22;9651;49.138;8.900;2023-04-03T01:37:40;4.80;99.90
19037;DHT22;9651;49.138;8.900;2023-04-03T01:41:42;4.70;99.90
19037;DHT22;9651;49.138;8.900;2023-04-03T01:45:52;4.70;99.90
19037;DHT22;9651;49.138;8.900;2023-04-03T01:49:56;4.60;99.90
19037;DHT22;9651;49.138;8.900;2023-04-03T01:53:58;4.70;99.90
19037;DHT22;9651;49.138;8.900;2023-04-03T01:58:01;4.60;99.90
19037;DHT22;9651;49.138;8.900;2023-04-03T02:02:02;4.60;99.90
19037;DHT22;9651;49.138;8.900;2023-04-03T02:06:06;4.60;99.90
19037;DHT22;9651;49.138;8.900;2023-04-03T02:10:08;4.60;99.90
19037;DHT22;9651;49.138;8.900;2023-04-03T02:14:10;4.70;99.90
19037;DHT22;9651;49.138;8.900;2023-04-03T02:18:12;4.70;99.90
19037;DHT22;9651;49.138;8.900;2023-04-03T02:22:16;4.70;99.90
19037;DHT22;9651;49.138;8.900;2023-04-03T02:26:18;4.70;99.90
19037;DHT22;9651;49.138;8.900;2023-04-03T02:30:20;4.70;99.90
19037;DHT22;9651;49.138;8.900;2023-04-03T02:34:22;4.70;99.90
19037;DHT22;9651;49.138;8.900;2023-04-03T02:38:26;4.70;99.90
19037;DHT22;9651;49.138;8.900;2023-04-03T02:42:29;4.70;99.90
19037;DHT22;9651;49.138;8.900;2023-04-03T02:46:31;4.60;99.90
19037;DHT22;9651;49.138;8.900;2023-04-03T02:50:33;4.60;99.90
19037;DHT22;9651;49.138;8.900;2023-04-03T02:54:36;4.70;99.90
19037;DHT22;9651;49.138;8.900;2023-04-03T02:58:41;4.70;99.90
19037;DHT22;9651;49.138;8.900;2023-04-03T03:02:44;4.70;99.90
19037;DHT22;9651;49.138;8.900;2023-04-03T03:06:45;4.60;99.90
19037;DHT22;9651;49.138;8.900;2023-04-03T03:10:49;4.60;99.90
19037;DHT22;9651;49.138;8.900;2023-04-03T03:14:51;4.60;99.90
19037;DHT22;9651;49.138;8.900;2023-04-03T03:18:53;4.60;99.90
19037;DHT22;9651;49.138;8.900;2023-04-03T03:22:55;4.60;99.90
19037;DHT22;9651;49.138;8.900;2023-04-03T03:27:00;4.60;99.90
19037;DHT22;9651;49.138;8.900;2023-04-03T03:31:04;4.60;99.90
19037;DHT22;9651;49.138;8.900;2023-04-03T03:35:07;4.50;99.90
19037;DHT22;9651;49.138;8.900;2023-04-03T03:39:09;4.40;99.90
19037;DHT22;9651;49.138;8.900;2023-04-03T03:43:13;4.40;99.90
19037;DHT22;9651;49.138;8.900;2023-04-03T03:47:16;4.50;99.90
19037;DHT22;9651;49.138;8.900;2023-04-03T03:51:17;4.50;99.90
19037;DHT22;9651;49.138;8.900;2023-04-03T03:55:20;4.50;99.90
19037;DHT22;9651;49.138;8.900;2023-04-03T03:59:27;4.50;99.90
19037;DHT22;9651;49.138;8.900;2023-04-03T04:03:30;4.50;99.90
19037;DHT22;9651;49.138;8.900;2023-04-03T04:07:32;4.50;99.90
19037;DHT22;9651;49.138;8.900;2023-04-03T04:11:35;4.50;99.90
19037;DHT22;9651;49.138;8.900;2023-04-03T04:15:39;4.30;99.90
19037;DHT22;9651;49.138;8.900;2023-04-03T04:19:41;4.30;99.90
19037;DHT22;9651;49.138;8.900;2023-04-03T04:23:43;4.20;99.90
19037;DHT22;9651;49.138;8.900;2023-04-03T04:27:45;4.10;99.90
19037;DHT22;9651;49.138;8.900;2023-04-03T04:31:51;4.10;99.90
19037;DHT22;9651;49.138;8.900;2023-04-03T04:35:53;3.90;99.90
19037;DHT22;9651;49.138;8.900;2023-04-03T04:39:56;3.90;99.90
19037;DHT22;9651;49.138;8.900;2023-04-03T04:43:58;3.90;99.90
19037;DHT22;9651;49.138;8.900;2023-04-03T04:48:03;3.80;99.90
19037;DHT22;9651;49.138;8.900;2023-04-03T04:52:05;3.70;99.90
19037;DHT22;9651;49.138;8.900;2023-04-03T04:56:07;3.60;99.90
19037;DHT22;9651;49.138;8.900;2023-04-03T05:00:12;3.60;99.90
19037;DHT22;9651;49.138;8.900;2023-04-03T05:04:15;3.60;99.90
19037;DHT22;9651;49.138;8.900;2023-04-03T05:08:20;3.60;99.90
19037;DHT22;9651;49.138;8.900;2023-04-03T05:12:22;3.60;99.90
19037;DHT22;9651;49.138;8.900;2023-04-03T05:16:30;3.60;99.90
19037;DHT22;9651;49.138;8.900;2023-04-03T05:20:34;3.70;99.90
19037;DHT22;9651;49.138;8.900;2023-04-03T05:24:36;3.80;99.90
19037;DHT22;9651;49.138;8.900;2023-04-03T05:28:39;3.70;99.90
19037;DHT22;9651;49.138;8.900;2023-04-03T05:32:42;3.80;99.90
19037;DHT22;9651;49.138;8.900;2023-04-03T05:36:54;3.80;99.90
19037;DHT22;9651;49.138;8.900;2023-04-03T05:40:56;3.90;99.90
19037;DHT22;9651;49.138;8.900;2023-04-03T05:44:59;3.90;99.90
19037;DHT22;9651;49.138;8.900;2023-04-03T05:49:01;4.00;99.90
19037;DHT22;9651;49.138;8.900;2023-04-03T05:53:09;4.10;99.90
19037;DHT22;9651;49.138;8.900;2023-04-03T05:57:16;4.20;99.90
19037;DHT22;9651;49.138;8.900;2023-04-03T06:01:18;4.20;99.90
19037;DHT22;9651;49.138;8.900;2023-04-03T06:05:21;4.30;99.90
19037;DHT22;9651;49.138;8.900;2023-04-03T06:09:26;4.30;99.90
19037;DHT22;9651;49.138;8.900;2023-04-03T06:13:29;4.40;99.90
19037;DHT22;9651;49.138;8.900;2023-04-03T06:17:31;4.50;99.90
19037;DHT22;9651;49.138;8.900;2023-04-03T06:21:33;4.60;99.90
19037;DHT22;9651;49.138;8.900;2023-04-03T06:25:38;4.70;99.90
19037;DHT22;9651;49.138;8.900;2023-04-03T06:29:40;4.90;99.90
19037;DHT22;9651;49.138;8.900;2023-04-03T06:33:42;5.10;99.90
19037;DHT22;9651;49.138;8.900;2023-04-03T06:37:43;5.20;99.90
19037;DHT22;9651;49.138;8.900;2023-04-03T06:41:47;5.40;99.90
19037;DHT22;9651;49.138;8.900;2023-04-03T06:45:50;5.50;99.90
19037;DHT22;9651;49.138;8.900;2023-04-03T06:49:52;5.70;99.90
19037;DHT22;9651;49.138;8.900;2023-04-03T06:53:56;5.90;99.90
19037;DHT22;9651;49.138;8.900;2023-04-03T06:57:59;5.90;99.90
19037;DHT22;9651;49.138;8.900;2023-04-03T07:02:02;6.20;99.90
19037;DHT22;9651;49.138;8.900;2023-04-03T07:06:05;6.70;99.90
19037;DHT22;9651;49.138;8.900;2023-04-03T07:10:08;6.70;99.90
19037;DHT22;9651;49.138;8.900;2023-04-03T07:14:11;7.20;99.90
19037;DHT22;9651;49.138;8.900;2023-04-03T07:18:13;7.40;99.90
19037;DHT22;9651;49.138;8.900;2023-04-03T07:22:15;7.60;99.90
19037;DHT22;9651;49.138;8.900;2023-04-03T07:26:17;8.00;99.90
19037;DHT22;9651;49.138;8.900;2023-04-03T07:30:22;7.70;99.90
19037;DHT22;9651;49.138;8.900;2023-04-03T07:34:24;8.30;99.90
19037;DHT22;9651;49.138;8.900;2023-04-03T07:38:26;8.60;99.90
19037;DHT22;9651;49.138;8.900;2023-04-03T07:42:28;9.40;99.90
19037;DHT22;9651;49.138;8.900;2023-04-03T07:46:32;9.70;99.90
19037;DHT22;9651;49.138;8.900;2023-04-03T07:50:34;9.90;99.90
19037;DHT22;9651;49.138;8.900;2023-04-03T07:54:36;9.60;99.90
19037;DHT22;9651;49.138;8.900;2023-04-03T07:58:38;9.50;99.90
19037;DHT22;9651;49.138;8.900;2023-04-03T08:02:41;10.20;99.90
19037;DHT22;9651;49.138;8.900;2023-04-03T08:06:44;10.60;99.90
19037;DHT22;9651;49.138;8.900;2023-04-03T08:10:49;10.90;99.90
19037;DHT22;9651;49.138;8.900;2023-04-03T08:14:51;11.10;99.90
19037;DHT22;9651;49.138;8.900;2023-04-03T08:18:55;11.80;99.90
19037;DHT22;9651;49.138;8.900;2023-04-03T08:22:57;12.10;99.90
19037;DHT22;9651;49.138;8.900;2023-04-03T08:26:59;12.40;99.90
19037;DHT22;9651;49.138;8.900;2023-04-03T08:31:03;12.70;99.90
19037;DHT22;9651;49.138;8.900;2023-04-03T08:35:09;13.20;99.90
19037;DHT22;9651;49.138;8.900;2023-04-03T08:39:11;12.90;99.90
19037;DHT22;9651;49.138;8.900;2023-04-03T08:43:30;12.30;99.90
19037;DHT22;9651;49.138;8.900;2023-04-03T08:47:38;12.70;99.90
19037;DHT22;9651;49.138;8.900;2023-04-03T08:51:46;12.50;99.90
19037;DHT22;9651;49.138;8.900;2023-04-03T08:55:50;12.80;99.90
19037;DHT22;9651;49.138;8.900;2023-04-03T08:59:52;13.00;99.90
19037;DHT22;9651;49.138;8.900;2023-04-03T09:03:54;12.10;99.90
19037;DHT22;9651;49.138;8.900;2023-04-03T09:08:00;12.40;99.90
19037;DHT22;9651;49.138;8.900;2023-04-03T09:12:15;12.80;99.90
19037;DHT22;9651;49.138;8.900;2023-04-03T09:16:30;12.50;99.80
19037;DHT22;9651;49.138;8.900;2023-04-03T09:20:41;12.30;99.70
19037;DHT22;9651;49.138;8.900;2023-04-03T09:24:52;12.10;99.90
19037;DHT22;9651;49.138;8.900;2023-04-03T09:29:02;12.70;99.90
19037;DHT22;9651;49.138;8.900;2023-04-03T09:33:06;13.40;99.70
19037;DHT22;9651;49.138;8.900;2023-04-03T09:37:08;13.10;98.90
19037;DHT22;9651;49.138;8.900;2023-04-03T09:41:21;14.10;98.90
19037;DHT22;9651;49.138;8.900;2023-04-03T09:45:27;14.80;97.30
19037;DHT22;9651;49.138;8.900;2023-04-03T09:49:29;14.30;95.10
19037;DHT22;9651;49.138;8.900;2023-04-03T09:53:34;14.40;95.10
19037;DHT22;9651;49.138;8.900;2023-04-03T09:57:38;14.40;95.80
19037;DHT22;9651;49.138;8.900;2023-04-03T10:01:43;14.60;95.00
19037;DHT22;9651;49.138;8.900;2023-04-03T10:05:47;14.90;93.40
19037;DHT22;9651;49.138;8.900;2023-04-03T10:09:55;13.60;95.70
19037;DHT22;9651;49.138;8.900;2023-04-03T10:13:59;13.70;95.10
19037;DHT22;9651;49.138;8.900;2023-04-03T10:18:04;13.60;95.50
19037;DHT22;9651;49.138;8.900;2023-04-03T10:22:20;12.90;95.50
19037;DHT22;9651;49.138;8.900;2023-04-03T10:26:32;12.30;95.90
19037;DHT22;9651;49.138;8.900;2023-04-03T10:30:44;12.50;95.90
19037;DHT22;9651;49.138;8.900;2023-04-03T10:34:55;12.60;95.30
19037;DHT22;9651;49.138;8.900;2023-04-03T10:39:06;12.00;95.80
19037;DHT22;9651;49.138;8.900;2023-04-03T10:43:15;11.40;96.80
19037;DHT22;9651;49.138;8.900;2023-04-03T10:47:26;11.50;96.80
19037;DHT22;9651;49.138;8.900;2023-04-03T10:51:37;11.50;96.70
19037;DHT22;9651;49.138;8.900;2023-04-03T10:55:45;11.30;97.00
19037;DHT22;9651;49.138;8.900;2023-04-03T10:59:51;10.90;97.00
19037;DHT22;9651;49.138;8.900;2023-04-03T11:03:58;10.60;97.90
19037;DHT22;9651;49.138;8.900;2023-04-03T11:08:03;10.90;97.80
19037;DHT22;9651;49.138;8.900;2023-04-03T11:12:12;10.60;97.70
19037;DHT22;9651;49.138;8.900;2023-04-03T11:16:21;10.70;97.50
19037;DHT22;9651;49.138;8.900;2023-04-03T11:20:28;10.50;97.70
19037;DHT22;9651;49.138;8.900;2023-04-03T11:24:36;10.50;97.80
19037;DHT22;9651;49.138;8.900;2023-04-03T11:28:40;10.30;97.80
19037;DHT22;9651;49.138;8.900;2023-04-03T11:33:11;10.80;96.80
19037;DHT22;9651;49.138;8.900;2023-04-03T11:37:22;11.60;96.40
19037;DHT22;9651;49.138;8.900;2023-04-03T11:41:28;11.10;95.40
19037;DHT22;9651;49.138;8.900;2023-04-03T11:45:36;10.60;96.90
19037;DHT22;9651;49.138;8.900;2023-04-03T11:50:00;10.40;95.40
19037;DHT22;9651;49.138;8.900;2023-04-03T11:58:39;11.70;96.10
19037;DHT22;9651;49.138;8.900;2023-04-03T12:02:42;12.00;95.10
19037;DHT22;9651;49.138;8.900;2023-04-03T12:07:12;11.60;95.20
19037;DHT22;9651;49.138;8.900;2023-04-03T12:11:25;11.00;95.70
19037;DHT22;9651;49.138;8.900;2023-04-03T12:15:53;10.80;96.00
19037;DHT22;9651;49.138;8.900;2023-04-03T12:19:57;10.60;93.70
19037;DHT22;9651;49.138;8.900;2023-04-03T12:24:04;10.70;94.80
19037;DHT22;9651;49.138;8.900;2023-04-03T12:28:10;11.30;95.30
19037;DHT22;9651;49.138;8.900;2023-04-03T12:32:22;11.90;94.20
19037;DHT22;9651;49.138;8.900;2023-04-03T12:36:33;11.50;93.60
19037;DHT22;9651;49.138;8.900;2023-04-03T12:40:43;12.10;93.80
19037;DHT22;9651;49.138;8.900;2023-04-03T12:44:54;12.70;92.30
19037;DHT22;9651;49.138;8.900;2023-04-03T12:49:00;12.30;91.30
19037;DHT22;9651;49.138;8.900;2023-04-03T12:53:05;11.80;92.30
19037;DHT22;9651;49.138;8.900;2023-04-03T12:57:12;13.10;91.30
19037;DHT22;9651;49.138;8.900;2023-04-03T13:01:16;13.70;91.40
19037;DHT22;9651;49.138;8.900;2023-04-03T13:05:22;13.20;91.10
19037;DHT22;9651;49.138;8.900;2023-04-03T13:09:25;12.40;90.50
19037;DHT22;9651;49.138;8.900;2023-04-03T13:13:28;12.10;92.00
19037;DHT22;9651;49.138;8.900;2023-04-03T13:17:30;11.40;92.70
19037;DHT22;9651;49.138;8.900;2023-04-03T13:21:35;11.00;93.00
19037;DHT22;9651;49.138;8.900;2023-04-03T13:25:41;11.00;92.50
19037;DHT22;9651;49.138;8.900;2023-04-03T13:29:48;12.50;92.30
19037;DHT22;9651;49.138;8.900;2023-04-03T13:33:55;12.80;92.60
19037;DHT22;9651;49.138;8.900;2023-04-03T13:38:01;12.30;92.30
19037;DHT22;9651;49.138;8.900;2023-04-03T13:42:16;11.90;92.90
19037;DHT22;9651;49.138;8.900;2023-04-03T13:46:26;11.50;93.10
19037;DHT22;9651;49.138;8.900;2023-04-03T13:50:29;11.40;93.10
19037;DHT22;9651;49.138;8.900;2023-04-03T13:54:35;11.40;91.80
19037;DHT22;9651;49.138;8.900;2023-04-03T13:58:37;11.30;92.50
19037;DHT22;9651;49.138;8.900;2023-04-03T14:02:40;11.60;93.00
19037;DHT22;9651;49.138;8.900;2023-04-03T14:06:42;11.50;91.50
19037;DHT22;9651;49.138;8.900;2023-04-03T14:10:46;11.10;91.40
19037;DHT22;9651;49.138;8.900;2023-04-03T14:14:50;10.70;91.40
19037;DHT22;9651;49.138;8.900;2023-04-03T14:18:52;10.30;91.90
19037;DHT22;9651;49.138;8.900;2023-04-03T14:22:54;10.20;91.30
19037;DHT22;9651;49.138;8.900;2023-04-03T14:26:58;10.20;91.40
19037;DHT22;9651;49.138;8.900;2023-04-03T14:31:00;10.10;91.60
19037;DHT22;9651;49.138;8.900;2023-04-03T14:35:03;10.60;92.30
19037;DHT22;9651;49.138;8.900;2023-04-03T14:39:07;10.60;91.50
19037;DHT22;9651;49.138;8.900;2023-04-03T14:43:12;10.50;91.20
19037;DHT22;9651;49.138;8.900;2023-04-03T14:47:16;10.30;91.90
19037;DHT22;9651;49.138;8.900;2023-04-03T14:51:20;10.20;91.70
19037;DHT22;9651;49.138;8.900;2023-04-03T14:55:24;10.40;91.00
19037;DHT22;9651;49.138;8.900;2023-04-03T14:59:28;10.60;92.00
19037;DHT22;9651;49.138;8.900;2023-04-03T15:03:32;10.40;91.40
19037;DHT22;9651;49.138;8.900;2023-04-03T15:07:36;9.80;91.30
19037;DHT22;9651;49.138;8.900;2023-04-03T15:11:38;9.70;92.40
19037;DHT22;9651;49.138;8.900;2023-04-03T15:15:42;9.80;91.50
19037;DHT22;9651;49.138;8.900;2023-04-03T15:19:44;10.00;91.90
19037;DHT22;9651;49.138;8.900;2023-04-03T15:23:46;10.40;91.50
19037;DHT22;9651;49.138;8.900;2023-04-03T15:27:48;10.40;91.30
19037;DHT22;9651;49.138;8.900;2023-04-03T15:31:51;9.80;91.60
19037;DHT22;9651;49.138;8.900;2023-04-03T15:35:54;9.80;92.40
19037;DHT22;9651;49.138;8.900;2023-04-03T15:39:56;9.90;91.70
19037;DHT22;9651;49.138;8.900;2023-04-03T15:43:58;10.40;92.00
19037;DHT22;9651;49.138;8.900;2023-04-03T15:48:01;10.70;91.60
19037;DHT22;9651;49.138;8.900;2023-04-03T15:52:03;10.50;91.70
19037;DHT22;9651;49.138;8.900;2023-04-03T15:56:06;10.70;92.30
19037;DHT22;9651;49.138;8.900;2023-04-03T16:00:09;11.80;90.90
19037;DHT22;9651;49.138;8.900;2023-04-03T16:04:13;12.80;90.50
19037;DHT22;9651;49.138;8.900;2023-04-03T16:08:15;13.20;87.00
19037;DHT22;9651;49.138;8.900;2023-04-03T16:12:18;12.40;86.20
19037;DHT22;9651;49.138;8.900;2023-04-03T16:16:20;11.90;88.90
19037;DHT22;9651;49.138;8.900;2023-04-03T16:20:25;11.10;90.30
19037;DHT22;9651;49.138;8.900;2023-04-03T16:24:27;10.60;90.90
19037;DHT22;9651;49.138;8.900;2023-04-03T16:28:29;10.70;90.40
19037;DHT22;9651;49.138;8.900;2023-04-03T16:32:31;10.80;91.00
19037;DHT22;9651;49.138;8.900;2023-04-03T16:36:34;11.20;90.20
19037;DHT22;9651;49.138;8.900;2023-04-03T16:40:37;11.30;89.50
19037;DHT22;9651;49.138;8.900;2023-04-03T16:44:39;11.20;88.50
19037;DHT22;9651;49.138;8.900;2023-04-03T16:48:41;10.80;88.90
19037;DHT22;9651;49.138;8.900;2023-04-03T16:52:45;10.60;90.60
19037;DHT22;9651;49.138;8.900;2023-04-03T16:56:47;10.30;91.10
19037;DHT22;9651;49.138;8.900;2023-04-03T17:00:49;9.90;91.10
19037;DHT22;9651;49.138;8.900;2023-04-03T17:04:51;9.70;91.70
19037;DHT22;9651;49.138;8.900;2023-04-03T17:08:54;9.40;92.80
19037;DHT22;9651;49.138;8.900;2023-04-03T17:13:02;9.10;92.20
19037;DHT22;9651;49.138;8.900;2023-04-03T17:17:04;8.80;91.40
19037;DHT22;9651;49.138;8.900;2023-04-03T17:21:06;8.70;91.70
19037;DHT22;9651;49.138;8.900;2023-04-03T17:25:10;8.50;91.30
19037;DHT22;9651;49.138;8.900;2023-04-03T17:29:13;8.40;91.50
19037;DHT22;9651;49.138;8.900;2023-04-03T17:33:15;8.20;91.30
19037;DHT22;9651;49.138;8.900;2023-04-03T17:37:17;8.10;91.40
19037;DHT22;9651;49.138;8.900;2023-04-03T17:41:21;8.00;91.70
19037;DHT22;9651;49.138;8.900;2023-04-03T17:45:22;7.90;91.90
19037;DHT22;9651;49.138;8.900;2023-04-03T17:49:25;7.80;92.10
19037;DHT22;9651;49.138;8.900;2023-04-03T17:53:27;7.70;92.40
19037;DHT22;9651;49.138;8.900;2023-04-03T17:57:30;7.50;92.30
19037;DHT22;9651;49.138;8.900;2023-04-03T18:01:33;7.50;92.80
19037;DHT22;9651;49.138;8.900;2023-04-03T18:05:36;7.40;92.90
19037;DHT22;9651;49.138;8.900;2023-04-03T18:09:38;7.30;93.40
19037;DHT22;9651;49.138;8.900;2023-04-03T18:13:43;7.30;93.50
19037;DHT22;9651;49.138;8.900;2023-04-03T18:17:46;7.10;94.10
19037;DHT22;9651;49.138;8.900;2023-04-03T18:21:50;7.00;94.60
19037;DHT22;9651;49.138;8.900;2023-04-03T18:25:52;7.00;94.90
19037;DHT22;9651;49.138;8.900;2023-04-03T18:29:58;6.90;95.10
19037;DHT22;9651;49.138;8.900;2023-04-03T18:34:01;6.80;95.10
19037;DHT22;9651;49.138;8.900;2023-04-03T18:38:03;6.80;95.00
19037;DHT22;9651;49.138;8.900;2023-04-03T18:42:07;6.60;95.10
19037;DHT22;9651;49.138;8.900;2023-04-03T18:46:11;6.50;95.20
19037;DHT22;9651;49.138;8.900;2023-04-03T18:50:13;6.50;95.60
19037;DHT22;9651;49.138;8.900;2023-04-03T18:54:15;6.40;95.80
19037;DHT22;9651;49.138;8.900;2023-04-03T18:58:17;6.30;96.20
19037;DHT22;9651;49.138;8.900;2023-04-03T19:02:20;6.30;96.40
19037;DHT22;9651;49.138;8.900;2023-04-03T19:06:25;6.20;96.50
19037;DHT22;9651;49.138;8.900;2023-04-03T19:10:27;6.10;96.70
19037;DHT22;9651;49.138;8.900;2023-04-03T19:14:29;6.00;96.70
19037;DHT22;9651;49.138;8.900;2023-04-03T19:18:33;6.00;96.70
19037;DHT22;9651;49.138;8.900;2023-04-03T19:22:34;5.90;97.00
19037;DHT22;9651;49.138;8.900;2023-04-03T19:26:36;5.80;96.70
19037;DHT22;9651;49.138;8.900;2023-04-03T19:30:38;5.70;97.00
19037;DHT22;9651;49.138;8.900;2023-04-03T19:34:48;5.70;96.90
19037;DHT22;9651;49.138;8.900;2023-04-03T19:38:50;5.60;96.90
19037;DHT22;9651;49.138;8.900;2023-04-03T19:42:52;5.60;96.90
19037;DHT22;9651;49.138;8.900;2023-04-03T19:46:57;5.60;96.80
19037;DHT22;9651;49.138;8.900;2023-04-03T19:51:01;5.50;96.20
19037;DHT22;9651;49.138;8.900;2023-04-03T19:55:04;5.40;96.50
19037;DHT22;9651;49.138;8.900;2023-04-03T19:59:06;5.30;96.80
19037;DHT22;9651;49.138;8.900;2023-04-03T20:03:08;5.30;97.10
19037;DHT22;9651;49.138;8.900;2023-04-03T20:07:11;5.30;97.30
19037;DHT22;9651;49.138;8.900;2023-04-03T20:11:13;5.30;97.20
19037;DHT22;9651;49.138;8.900;2023-04-03T20:15:16;5.20;97.50
19037;DHT22;9651;49.138;8.900;2023-04-03T20:19:18;5.20;96.90
19037;DHT22;9651;49.138;8.900;2023-04-03T20:23:22;5.10;97.10
19037;DHT22;9651;49.138;8.900;2023-04-03T20:27:25;5.10;97.10
19037;DHT22;9651;49.138;8.900;2023-04-03T20:31:29;5.00;97.60
19037;DHT22;9651;49.138;8.900;2023-04-03T20:35:32;4.90;97.50
19037;DHT22;9651;49.138;8.900;2023-04-03T20:39:36;4.90;97.50
19037;DHT22;9651;49.138;8.900;2023-04-03T20:43:37;4.80;97.60
19037;DHT22;9651;49.138;8.900;2023-04-03T20:47:42;4.80;97.70
19037;DHT22;9651;49.138;8.900;2023-04-03T20:51:44;4.80;97.80
19037;DHT22;9651;49.138;8.900;2023-04-03T20:55:54;4.70;98.00
19037;DHT22;9651;49.138;8.900;2023-04-03T20:59:59;4.60;98.00
19037;DHT22;9651;49.138;8.900;2023-04-03T21:04:07;4.50;97.90
19037;DHT22;9651;49.138;8.900;2023-04-03T21:21:33;4.30;98.50
19037;DHT22;9651;49.138;8.900;2023-04-03T21:25:36;4.30;98.60
19037;DHT22;9651;49.138;8.900;2023-04-03T21:29:38;4.30;98.80
19037;DHT22;9651;49.138;8.900;2023-04-03T21:33:40;4.20;98.90
19037;DHT22;9651;49.138;8.900;2023-04-03T21:37:43;4.10;99.10
19037;DHT22;9651;49.138;8.900;2023-04-03T21:41:45;4.10;99.20
19037;DHT22;9651;49.138;8.900;2023-04-03T21:45:47;4.10;99.20
19037;DHT22;9651;49.138;8.900;2023-04-03T21:49:53;4.00;99.10
19037;DHT22;9651;49.138;8.900;2023-04-03T21:53:56;3.90;99.40
19037;DHT22;9651;49.138;8.900;2023-04-03T21:57:58;3.90;99.60
19037;DHT22;9651;49.138;8.900;2023-04-03T22:02:00;3.80;99.40
19037;DHT22;9651;49.138;8.900;2023-04-03T22:06:03;3.80;99.50
19037;DHT22;9651;49.138;8.900;2023-04-03T22:10:07;3.70;99.50
19037;DHT22;9651;49.138;8.900;2023-04-03T22:14:09;3.70;99.70
19037;DHT22;9651;49.138;8.900;2023-04-03T22:18:12;3.40;99.90
19037;DHT22;9651;49.138;8.900;2023-04-03T22:22:13;3.50;99.90
19037;DHT22;9651;49.138;8.900;2023-04-03T22:26:17;3.40;99.90
19037;DHT22;9651;49.138;8.900;2023-04-03T22:30:19;3.40;99.90
19037;DHT22;9651;49.138;8.900;2023-04-03T22:34:21;3.30;99.90
19037;DHT22;9651;49.138;8.900;2023-04-03T22:38:23;3.40;99.90
19037;DHT22;9651;49.138;8.900;2023-04-03T22:42:26;3.30;99.90
19037;DHT22;9651;49.138;8.900;2023-04-03T22:46:29;3.20;99.90
19037;DHT22;9651;49.138;8.900;2023-04-03T22:50:31;3.20;99.90
19037;DHT22;9651;49.138;8.900;2023-04-03T22:54:36;3.20;99.90
19037;DHT22;9651;49.138;8.900;2023-04-03T22:58:39;3.20;99.90
19037;DHT22;9651;49.138;8.900;2023-04-03T23:02:41;3.10;99.90
19037;DHT22;9651;49.138;8.900;2023-04-03T23:06:43;2.90;99.90
19037;DHT22;9651;49.138;8.900;2023-04-03T23:10:45;2.90;99.90
19037;DHT22;9651;49.138;8.900;2023-04-03T23:14:49;2.80;99.90
19037;DHT22;9651;49.138;8.900;2023-04-03T23:18:51;2.90;99.90
19037;DHT22;9651;49.138;8.900;2023-04-03T23:22:53;2.90;99.90
19037;DHT22;9651;49.138;8.900;2023-04-03T23:26:55;2.70;99.90
19037;DHT22;9651;49.138;8.900;2023-04-03T23:30:59;2.70;99.90
19037;DHT22;9651;49.138;8.900;2023-04-03T23:35:01;2.60;99.90
19037;DHT22;9651;49.138;8.900;2023-04-03T23:39:03;2.60;99.90
19037;DHT22;9651;49.138;8.900;2023-04-03T23:43:05;2.70;99.90
19037;DHT22;9651;49.138;8.900;2023-04-03T23:47:08;2.60;99.90
19037;DHT22;9651;49.138;8.900;2023-04-03T23:51:10;2.60;99.90
19037;DHT22;9651;49.138;8.900;2023-04-03T23:55:12;2.50;99.90
19037;DHT22;9651;49.138;8.900;2023-04-03T23:59:14;2.50;99.90
